Time;durP1;ratioP1;P1;durP2;ratioP2;P2;SDS_P1;SDS_P2;PMS_P1;PMS_P2;Temp;Humidity;BMP_temperature;BMP_pressure;BME280_temperature;BME280_humidity;BME280_pressure;Samples;Min_cycle;Max_cycle;Signal;HPM_P1;HPM_P2
2020/12/15 00:03:56;;;;;;;;;;;2.70;99.90;;;0.92;95.08;95373.31;10437487;28;1703;-86
2020/12/15 00:08:57;;;;;;;;;;;2.00;99.90;;;1.00;95.42;95394.19;10421160;28;1899;-85
2020/12/15 00:13:59;;;;;;;;;;;3.70;99.90;;;1.12;95.06;95373.06;10418563;28;2038;-86
2020/12/15 00:19:01;;;;;;;;;;;2.80;99.90;;;1.15;95.01;95366.53;10414830;28;1773;-83
2020/12/15 00:24:03;;;;;;;;;;;2.20;99.90;;;1.06;95.32;95368.66;10436856;28;1759;-83
2020/12/15 00:29:05;;;;;;;;;;;2.20;99.90;;;1.01;95.53;95361.38;10421272;28;1918;-85
2020/12/15 00:34:06;;;;;;;;;;;2.30;99.90;;;1.04;95.84;95350.38;10422382;28;1795;-84
2020/12/15 00:39:08;;;;;;;;;;;3.90;99.90;;;1.08;95.38;95351.53;10456045;28;1173;-84
2020/12/15 00:44:10;;;;;;;;;;;2.10;99.90;;;1.08;95.46;95345.41;10464951;28;1711;-85
2020/12/15 00:49:11;;;;;;;;;;;2.10;99.90;;;1.15;95.63;95348.81;10429525;28;1983;-85
2020/12/15 00:54:13;;;;;;;;;;;2.60;99.90;;;1.10;95.86;95358.44;10433405;28;1575;-86
2020/12/15 00:59:15;;;;;;;;;;;2.20;99.90;;;1.32;95.82;95380.72;10434305;28;1597;-84
2020/12/15 01:04:17;;;;;;;;;;;2.40;99.90;;;1.37;95.35;95386.16;10423485;28;2038;-85
2020/12/15 01:09:19;;;;;;;;;;;2.40;99.90;;;1.53;94.86;95384.75;10439714;28;1685;-85
2020/12/15 01:14:20;;;;;;;;;;;2.70;99.90;;;1.67;94.19;95380.03;10469549;28;1541;-85
2020/12/15 01:19:25;;;;;;;;;;;2.70;99.90;;;1.85;93.94;95394.03;10463957;28;1452;-84
2020/12/15 01:24:27;;;;;;;;;;;3.20;99.90;;;1.88;93.15;95393.56;10441981;28;1918;-85
2020/12/15 01:29:29;;;;;;;;;;;2.90;99.90;;;1.96;92.73;95397.69;10455165;28;1538;-87
2020/12/15 01:34:31;;;;;;;;;;;3.10;99.90;;;2.04;91.82;95397.38;10433082;28;1559;-86
2020/12/15 01:39:33;;;;;;;;;;;4.20;99.90;;;1.98;91.09;95408.91;10442528;28;1807;-86
2020/12/15 01:44:35;;;;;;;;;;;3.00;99.90;;;1.89;91.49;95415.56;10451146;28;1914;-86
2020/12/15 01:49:36;;;;;;;;;;;3.00;99.90;;;1.86;91.68;95402.78;10417696;28;1963;-86
2020/12/15 01:54:38;;;;;;;;;;;2.90;99.90;;;1.72;91.76;95410.13;10433030;28;1560;-86
2020/12/15 01:59:40;;;;;;;;;;;2.90;99.90;;;1.84;90.85;95423.38;10420612;28;2051;-87
2020/12/15 02:04:43;;;;;;;;;;;2.90;99.90;;;1.80;90.84;95403.69;10425474;28;2113;-86
2020/12/15 02:09:44;;;;;;;;;;;2.90;99.90;;;1.55;92.42;95402.00;10433682;28;1674;-85
2020/12/15 02:14:46;;;;;;;;;;;2.70;99.90;;;1.67;92.29;95403.88;10423415;28;1952;-85
2020/12/15 02:19:48;;;;;;;;;;;2.80;99.90;;;1.74;92.31;95417.84;10409844;28;1768;-88
2020/12/15 02:24:49;;;;;;;;;;;2.80;99.90;;;1.75;92.34;95422.91;10417483;28;2164;-86
2020/12/15 02:29:51;;;;;;;;;;;2.80;99.90;;;1.82;91.52;95420.16;10418094;28;1675;-87
2020/12/15 02:34:53;;;;;;;;;;;4.00;99.90;;;1.72;91.20;95418.06;10429627;28;1918;-87
2020/12/15 02:39:55;;;;;;;;;;;2.80;99.90;;;1.76;91.03;95421.06;10440865;28;2064;-87
2020/12/15 02:44:57;;;;;;;;;;;4.90;99.90;;;1.81;91.72;95421.19;10465736;28;1990;-86
2020/12/15 02:49:58;;;;;;;;;;;2.80;99.90;;;1.71;91.01;95412.97;10450827;28;2065;-85
2020/12/15 02:55:00;;;;;;;;;;;4.60;99.90;;;1.61;92.04;95432.91;10444124;28;2078;-84
2020/12/15 03:00:02;;;;;;;;;;;2.70;99.90;;;1.76;92.09;95435.13;10444386;28;2032;-81
2020/12/15 03:05:04;;;;;;;;;;;2.80;99.90;;;1.85;92.00;95430.31;10442452;28;2017;-81
2020/12/15 03:10:06;;;;;;;;;;;2.80;99.90;;;1.93;91.34;95432.63;10435513;28;2108;-85
2020/12/15 03:15:07;;;;;;;;;;;2.90;99.90;;;2.00;90.34;95430.69;10416722;28;2113;-85
2020/12/15 03:20:09;;;;;;;;;;;3.10;99.90;;;1.99;90.34;95429.06;10416832;28;2005;-84
2020/12/15 03:25:11;;;;;;;;;;;3.10;99.90;;;1.96;90.12;95426.88;10411905;28;1993;-86
2020/12/15 03:30:19;;;;;;;;;;;4.10;99.90;;;2.06;90.04;95431.63;10420447;28;2059;-83
2020/12/15 03:35:21;;;;;;;;;;;3.80;99.90;;;2.04;89.68;95434.50;10450056;28;1544;-85
2020/12/15 03:40:23;;;;;;;;;;;3.20;99.90;;;2.07;89.69;95444.63;10459860;28;1815;-84
2020/12/15 03:45:24;;;;;;;;;;;3.10;99.90;;;2.10;89.16;95427.44;10454255;28;1973;-85
2020/12/15 03:50:26;;;;;;;;;;;3.20;99.90;;;2.06;88.79;95436.91;10422526;28;2057;-87
2020/12/15 03:55:29;;;;;;;;;;;3.90;99.90;;;2.03;89.78;95437.38;10433136;28;2033;-86
2020/12/15 04:00:30;;;;;;;;;;;3.20;99.90;;;2.01;88.86;95445.56;10429760;28;2061;-87
2020/12/15 04:05:32;;;;;;;;;;;3.10;99.90;;;1.95;88.54;95441.16;10417503;28;2180;-86
2020/12/15 04:10:34;;;;;;;;;;;3.10;99.90;;;1.95;88.35;95435.06;10418214;28;2085;-85
2020/12/15 04:15:36;;;;;;;;;;;3.40;99.90;;;1.97;88.79;95431.13;10425874;28;1862;-86
2020/12/15 04:20:37;;;;;;;;;;;3.10;99.90;;;1.92;88.46;95420.41;10410494;28;2092;-86
2020/12/15 04:25:39;;;;;;;;;;;3.00;99.90;;;2.03;88.03;95429.41;10423140;28;2057;-86
2020/12/15 04:30:41;;;;;;;;;;;4.20;99.90;;;1.85;87.69;95404.63;10418217;28;2057;-86
2020/12/15 04:35:43;;;;;;;;;;;4.40;99.90;;;1.86;88.61;95418.69;10419212;28;2205;-84
2020/12/15 04:40:44;;;;;;;;;;;3.00;99.90;;;1.98;87.84;95424.00;10409678;28;2160;-86
2020/12/15 04:45:46;;;;;;;;;;;3.00;99.90;;;1.74;87.16;95376.25;10421786;28;2036;-84
2020/12/15 04:50:48;;;;;;;;;;;3.00;99.90;;;1.31;88.30;95339.41;10422614;28;1974;-86
2020/12/15 04:55:49;;;;;;;;;;;2.60;99.90;;;1.23;90.45;95364.38;10415467;28;2053;-84
2020/12/15 05:00:51;;;;;;;;;;;2.20;99.90;;;1.08;89.99;95318.94;10424486;28;2132;-83
2020/12/15 05:05:53;;;;;;;;;;;2.30;99.90;;;0.87;90.47;95317.59;10422846;28;1988;-84
2020/12/15 05:10:54;;;;;;;;;;;2.00;99.90;;;0.71;90.33;95312.94;10428338;28;2018;-83
2020/12/15 05:15:57;;;;;;;;;;;1.90;99.90;;;0.67;90.58;95290.59;10417480;28;1966;-84
2020/12/15 05:20:59;;;;;;;;;;;1.80;99.90;;;0.56;90.83;95256.97;10426306;28;2061;-87
2020/12/15 05:26:00;;;;;;;;;;;1.70;99.90;;;0.52;91.53;95265.38;10433906;28;1966;-87
2020/12/15 05:31:02;;;;;;;;;;;1.60;99.90;;;0.74;91.37;95338.94;10425447;28;2049;-86
2020/12/15 05:36:04;;;;;;;;;;;1.70;99.90;;;1.05;90.51;95346.69;10427016;28;2065;-85
2020/12/15 05:41:06;;;;;;;;;;;2.00;99.90;;;1.06;89.30;95332.41;10414666;28;1966;-86
2020/12/15 05:46:11;;;;;;;;;;;2.20;99.90;;;1.24;88.92;95333.41;10428091;28;2116;-86
2020/12/15 05:51:13;;;;;;;;;;;2.30;99.90;;;1.39;88.84;95357.59;10414502;28;1993;-87
2020/12/15 05:56:14;;;;;;;;;;;3.20;99.90;;;1.45;87.51;95335.50;10419801;28;2025;-87
2020/12/15 06:01:16;;;;;;;;;;;2.80;99.90;;;1.52;88.22;95341.53;10426093;28;2025;-82
2020/12/15 06:06:18;;;;;;;;;;;2.50;99.90;;;1.42;87.63;95333.34;10422659;28;2006;-85
2020/12/15 06:11:20;;;;;;;;;;;3.90;99.90;;;1.47;87.67;95328.16;10422796;28;2062;-85
2020/12/15 06:16:27;;;;;;;;;;;3.80;99.90;;;1.31;88.01;95340.22;10423683;28;1852;-85
2020/12/15 06:21:29;;;;;;;;;;;2.50;99.90;;;1.27;88.22;95348.81;10419255;28;2105;-82
2020/12/15 06:26:31;;;;;;;;;;;3.90;99.90;;;1.35;87.89;95356.47;10420533;28;2005;-84
2020/12/15 06:31:33;;;;;;;;;;;2.80;99.90;;;1.36;87.96;95358.06;10444856;28;2014;-83
2020/12/15 06:36:35;;;;;;;;;;;3.40;99.90;;;1.37;87.69;95348.28;10412104;28;2049;-84
2020/12/15 06:41:37;;;;;;;;;;;2.50;99.90;;;1.31;88.21;95360.59;10416854;28;2108;-83
2020/12/15 06:46:45;;;;;;;;;;;2.50;99.90;;;1.34;88.26;95350.38;10423749;28;2166;-85
2020/12/15 06:51:47;;;;;;;;;;;2.50;99.90;;;1.29;88.26;95349.44;10414648;28;1998;-84
2020/12/15 06:56:49;;;;;;;;;;;2.50;99.90;;;1.31;88.86;95355.28;10428858;28;2104;-82
2020/12/15 07:01:50;;;;;;;;;;;4.30;99.90;;;1.24;88.58;95365.97;10421407;28;2081;-82
2020/12/15 07:06:52;;;;;;;;;;;3.90;99.90;;;1.30;88.99;95374.88;10438653;28;2089;-84
2020/12/15 07:11:54;;;;;;;;;;;4.10;99.90;;;1.18;89.61;95371.38;10434333;28;1962;-81
2020/12/15 07:16:58;;;;;;;;;;;3.90;99.90;;;1.24;89.43;95373.91;10448280;28;2164;-82
2020/12/15 07:22:00;;;;;;;;;;;2.40;99.90;;;1.28;89.71;95383.03;10432218;28;2279;-81
2020/12/15 07:27:02;;;;;;;;;;;2.40;99.90;;;1.42;89.05;95386.31;10442985;28;2052;-83
2020/12/15 07:32:04;;;;;;;;;;;2.50;99.90;;;1.38;88.78;95408.97;10428591;28;1999;-83
2020/12/15 07:37:08;;;;;;;;;;;3.60;99.90;;;1.34;89.39;95402.53;10435272;28;1862;-83
2020/12/15 07:42:10;;;;;;;;;;;3.70;99.90;;;1.22;89.39;95401.66;10460445;28;2143;-82
2020/12/15 07:47:26;;;;;;;;;;;3.20;99.90;;;1.33;89.42;95408.81;10458043;28;1941;-81
2020/12/15 07:58:06;;;;;;;;;;;2.40;99.90;;;1.60;88.07;95412.75;10433059;28;2026;-83
2020/12/15 08:03:27;;;;;;;;;;;2.60;99.90;;;1.79;87.28;95412.69;10426184;28;1844;-85
2020/12/15 08:08:29;;;;;;;;;;;4.00;99.90;;;1.77;87.13;95412.06;10439911;28;1974;-86
2020/12/15 08:13:34;;;;;;;;;;;2.80;99.90;;;1.91;86.52;95413.50;10431067;28;1678;-83
2020/12/15 08:18:39;;;;;;;;;;;2.90;99.90;;;1.81;86.69;95429.16;10449001;28;1674;-84
2020/12/15 08:23:46;;;;;;;;;;;2.90;99.90;;;1.86;86.82;95424.78;10416480;28;1819;-83
2020/12/15 08:28:49;;;;;;;;;;;2.90;99.90;;;1.95;87.38;95430.56;10421236;28;2032;-83
2020/12/15 08:33:53;;;;;;;;;;;3.00;99.90;;;2.00;86.86;95438.63;10420984;28;1980;-82
2020/12/15 08:38:54;;;;;;;;;;;3.90;99.90;;;2.25;85.51;95451.69;10420972;28;1770;-81
2020/12/15 08:43:56;;;;;;;;;;;3.80;99.90;;;2.13;86.01;95450.88;10438268;28;1968;-82
2020/12/15 08:48:58;;;;;;;;;;;3.30;99.90;;;2.25;85.21;95450.91;10439739;28;1961;-83
2020/12/15 08:54:00;;;;;;;;;;;3.30;99.90;;;2.21;85.05;95457.69;10447553;28;1798;-85
2020/12/15 08:59:02;;;;;;;;;;;4.30;99.90;;;2.05;85.86;95449.38;10438143;28;1854;-80
2020/12/15 09:04:04;;;;;;;;;;;3.40;99.90;;;2.12;85.02;95452.72;10432444;28;1858;-83
2020/12/15 09:09:05;;;;;;;;;;;3.20;99.90;;;2.28;85.22;95455.72;10415964;28;1981;-82
2020/12/15 09:14:07;;;;;;;;;;;4.60;99.90;;;2.48;84.50;95460.69;10426627;28;1733;-82
2020/12/15 09:19:09;;;;;;;;;;;3.50;99.90;;;2.53;84.00;95463.47;10421672;28;2006;-83
2020/12/15 09:24:11;;;;;;;;;;;3.50;99.90;;;2.55;83.89;95466.72;10414830;28;1822;-84
2020/12/15 09:29:13;;;;;;;;;;;3.60;99.90;;;2.76;84.37;95473.28;10399077;28;1989;-82
2020/12/15 09:34:15;;;;;;;;;;;3.80;99.90;;;3.03;82.75;95474.41;10398152;28;1957;-82
2020/12/15 09:39:17;;;;;;;;;;;4.00;99.90;;;3.13;82.39;95482.59;10410045;28;2274;-82
2020/12/15 09:44:19;;;;;;;;;;;4.10;99.90;;;3.18;82.14;95464.13;10422797;28;1927;-80
2020/12/15 09:49:20;;;;;;;;;;;4.20;99.90;;;3.16;81.46;95474.16;10425554;28;1981;-80
2020/12/15 09:54:22;;;;;;;;;;;4.90;99.90;;;3.12;82.04;95488.97;10428970;28;1965;-81
2020/12/15 09:59:24;;;;;;;;;;;4.30;99.90;;;3.32;82.12;95483.25;10423282;28;1904;-83
2020/12/15 10:04:28;;;;;;;;;;;4.30;99.90;;;3.31;81.45;95481.66;10415032;28;1715;-83
2020/12/15 10:09:31;;;;;;;;;;;5.80;99.90;;;3.31;81.91;95480.81;10424621;28;2004;-83
2020/12/15 10:14:33;;;;;;;;;;;5.00;99.90;;;3.22;81.98;95457.28;10421807;28;2031;-83
2020/12/15 10:19:35;;;;;;;;;;;4.40;99.90;;;3.53;81.44;95444.59;10418533;28;1991;-81
2020/12/15 10:24:37;;;;;;;;;;;5.60;99.90;;;3.67;81.09;95451.22;10446784;28;1881;-82
2020/12/15 10:29:39;;;;;;;;;;;4.50;99.90;;;3.47;81.44;95456.16;10435906;28;1994;-82
2020/12/15 10:34:40;;;;;;;;;;;4.60;99.90;;;3.71;80.63;95456.91;10440432;28;1934;-83
2020/12/15 10:39:42;;;;;;;;;;;4.70;99.90;;;3.75;81.05;95466.81;10417152;28;1913;-82
2020/12/15 10:44:44;;;;;;;;;;;4.70;99.90;;;3.93;80.44;95451.69;10430592;28;1263;-81
2020/12/15 10:49:46;;;;;;;;;;;6.50;99.90;;;3.81;80.59;95465.03;10439520;28;2032;-82
2020/12/15 10:54:47;;;;;;;;;;;4.90;99.90;;;3.64;80.99;95465.00;10428921;28;1927;-81
2020/12/15 10:59:49;;;;;;;;;;;4.80;99.90;;;3.52;81.76;95453.63;10421244;28;1983;-83
2020/12/15 11:04:52;;;;;;;;;;;5.80;99.90;;;3.33;83.07;95460.16;10430942;28;1982;-82
2020/12/15 11:09:54;;;;;;;;;;;4.50;99.90;;;3.35;83.01;95458.84;10431466;28;1975;-82
2020/12/15 11:14:55;;;;;;;;;;;4.50;99.90;;;3.36;83.07;95462.31;10433145;28;2270;-82
2020/12/15 11:19:57;;;;;;;;;;;4.50;99.90;;;3.43;83.19;95457.69;10432218;28;1858;-82
2020/12/15 11:24:59;;;;;;;;;;;5.10;99.90;;;3.31;83.51;95456.91;10432209;28;1932;-85
2020/12/15 11:30:00;;;;;;;;;;;4.50;99.90;;;3.53;82.82;95460.53;10424388;28;1982;-83
2020/12/15 11:35:05;;;;;;;;;;;4.60;99.90;;;3.75;81.58;95464.16;10430663;28;1963;-83
2020/12/15 11:40:07;;;;;;;;;;;4.80;99.90;;;4.13;81.01;95460.00;10443786;28;1534;-84
2020/12/15 11:45:08;;;;;;;;;;;5.30;99.90;;;4.46;79.64;95471.75;10438265;28;1842;-84
2020/12/15 11:50:10;;;;;;;;;;;5.30;99.90;;;4.57;78.37;95463.66;10418503;28;2029;-82
2020/12/15 11:55:12;;;;;;;;;;;5.50;99.90;;;4.93;77.74;95460.72;10441476;28;1972;-82
2020/12/15 12:00:14;;;;;;;;;;;5.70;99.90;;;5.25;75.92;95443.00;10440519;28;1955;-81
2020/12/15 12:05:15;;;;;;;;;;;6.30;99.90;;;5.41;75.46;95441.34;10458483;28;1888;-84
2020/12/15 12:10:17;;;;;;;;;;;6.30;99.90;;;5.13;77.21;95437.00;10450606;28;1882;-84
2020/12/15 12:15:19;;;;;;;;;;;7.40;99.90;;;4.79;78.29;95437.09;10415722;28;1605;-84
2020/12/15 12:20:20;;;;;;;;;;;5.90;99.90;;;4.86;78.50;95434.25;10429018;28;1882;-85
2020/12/15 12:25:22;;;;;;;;;;;5.80;99.90;;;4.93;77.57;95442.06;10428751;28;1976;-87
2020/12/15 12:30:24;;;;;;;;;;;6.60;99.90;;;4.70;79.35;95441.22;10424740;28;1877;-84
2020/12/15 12:35:26;;;;;;;;;;;6.40;99.90;;;4.64;79.45;95452.03;10450264;28;1893;-84
2020/12/15 12:40:28;;;;;;;;;;;6.40;99.90;;;4.50;79.57;95464.88;10441001;28;1708;-83
2020/12/15 12:45:30;;;;;;;;;;;5.90;99.90;;;4.48;80.57;95486.41;10457645;28;1891;-82
2020/12/15 12:50:32;;;;;;;;;;;7.00;99.90;;;4.64;79.64;95483.97;10441194;28;1929;-84
2020/12/15 12:55:33;;;;;;;;;;;6.10;99.90;;;4.79;79.11;95501.00;10412843;28;1937;-84
2020/12/15 13:00:35;;;;;;;;;;;6.80;99.90;;;4.76;78.99;95484.69;10410327;28;1897;-83
2020/12/15 13:05:37;;;;;;;;;;;6.60;99.90;;;4.65;79.31;95499.72;10426781;28;2007;-82
2020/12/15 13:10:39;;;;;;;;;;;5.80;99.90;;;4.56;79.63;95507.28;10406021;28;2051;-82
2020/12/15 13:15:41;;;;;;;;;;;6.80;99.90;;;4.56;80.21;95517.94;10410029;28;2046;-83
2020/12/15 13:20:42;;;;;;;;;;;5.70;99.90;;;4.63;80.18;95523.09;10406633;28;1720;-81
2020/12/15 13:25:44;;;;;;;;;;;5.70;99.90;;;4.60;79.69;95515.63;10414510;28;2001;-83
2020/12/15 13:30:46;;;;;;;;;;;5.60;99.90;;;4.47;80.29;95515.94;10414364;28;1690;-81
2020/12/15 13:35:48;;;;;;;;;;;6.30;99.90;;;4.26;81.58;95526.25;10418797;28;1882;-84
2020/12/15 13:40:50;;;;;;;;;;;6.10;99.90;;;4.20;81.84;95529.88;10430018;28;1885;-82
2020/12/15 13:45:52;;;;;;;;;;;5.30;99.90;;;4.19;81.65;95520.25;10425288;28;1991;-83
2020/12/15 13:50:53;;;;;;;;;;;6.10;99.90;;;3.84;83.83;95519.59;10401764;28;1945;-81
2020/12/15 13:55:55;;;;;;;;;;;5.10;99.90;;;3.83;84.57;95510.81;10408660;28;2075;-83
2020/12/15 14:00:57;;;;;;;;;;;4.90;99.90;;;3.62;84.30;95500.84;10409066;28;1865;-82
2020/12/15 14:05:58;;;;;;;;;;;4.80;99.90;;;3.41;85.60;95503.09;10412583;28;2028;-83
2020/12/15 14:11:00;;;;;;;;;;;4.60;99.90;;;3.44;85.87;95507.16;10414545;28;1925;-83
2020/12/15 14:16:02;;;;;;;;;;;5.10;99.90;;;3.43;86.73;95526.75;10413645;28;1978;-86
2020/12/15 14:21:12;;;;;;;;;;;4.50;99.90;;;3.48;86.17;95525.03;10424998;28;2042;-83
2020/12/15 14:26:16;;;;;;;;;;;4.70;99.90;;;3.60;86.47;95535.63;10425754;28;2059;-81
2020/12/15 14:31:17;;;;;;;;;;;4.70;99.90;;;3.65;85.89;95534.94;10431133;28;2127;-83
2020/12/15 14:36:19;;;;;;;;;;;5.20;99.90;;;3.59;86.63;95520.72;10444693;28;2398;-83
2020/12/15 14:41:21;;;;;;;;;;;5.70;99.90;;;3.57;86.32;95525.47;10422071;28;1924;-83
2020/12/15 14:46:24;;;;;;;;;;;5.20;99.90;;;3.65;86.29;95525.09;10433013;28;1955;-80
2020/12/15 14:51:44;;;;;;;;;;;6.50;99.90;;;3.62;86.08;95549.47;10423314;28;2049;-82
2020/12/15 14:56:47;;;;;;;;;;;4.70;99.90;;;3.73;85.58;95542.53;10405083;28;2636;-83
2020/12/15 15:01:52;;;;;;;;;;;4.80;99.90;;;3.76;85.79;95548.19;10410014;28;1815;-84
2020/12/15 15:07:03;;;;;;;;;;;6.00;99.90;;;3.62;86.24;95549.47;10409129;28;1968;-85
2020/12/15 15:12:06;;;;;;;;;;;6.30;99.90;;;3.63;86.30;95558.28;10419577;28;1869;-85
2020/12/15 15:17:07;;;;;;;;;;;5.20;99.90;;;3.61;86.70;95555.84;10407856;28;1775;-84
2020/12/15 15:22:09;;;;;;;;;;;4.70;99.90;;;3.63;86.47;95558.28;10434613;28;1990;-85
2020/12/15 15:27:14;;;;;;;;;;;5.60;99.90;;;3.56;87.27;95570.88;10426915;28;2090;-86
2020/12/15 15:32:16;;;;;;;;;;;5.20;99.90;;;3.59;87.35;95576.53;10430315;28;1830;-86
2020/12/15 15:37:18;;;;;;;;;;;5.60;99.90;;;3.60;87.10;95575.50;10436950;28;1924;-86
2020/12/15 15:42:23;;;;;;;;;;;5.00;99.90;;;3.59;87.88;95579.19;10433208;28;2030;-85
2020/12/15 15:47:30;;;;;;;;;;;4.70;99.90;;;3.65;87.38;95572.16;10421044;28;1879;-83
2020/12/15 15:52:33;;;;;;;;;;;4.60;99.90;;;3.71;87.40;95576.53;10452773;28;1580;-83
2020/12/15 15:57:34;;;;;;;;;;;4.80;99.90;;;3.82;87.57;95585.50;10452471;28;1686;-81
2020/12/15 16:02:36;;;;;;;;;;;4.90;99.90;;;3.86;87.11;95595.44;10451556;28;1933;-81
2020/12/15 16:07:37;;;;;;;;;;;5.00;99.90;;;3.96;86.73;95594.84;10430259;28;1975;-85
2020/12/15 16:12:39;;;;;;;;;;;5.00;99.90;;;3.98;86.78;95592.75;10434412;28;1980;-85
2020/12/15 16:17:41;;;;;;;;;;;5.10;99.90;;;4.11;86.50;95605.75;10418476;28;1959;-86
2020/12/15 16:22:43;;;;;;;;;;;5.20;99.90;;;4.19;86.27;95604.56;10422495;28;1951;-82
2020/12/15 16:27:52;;;;;;;;;;;5.20;99.90;;;4.15;86.38;95604.25;10419983;28;1980;-83
2020/12/15 16:32:54;;;;;;;;;;;5.90;99.90;;;4.18;86.42;95603.75;10419142;28;1952;-86
2020/12/15 16:37:55;;;;;;;;;;;5.20;99.90;;;4.15;86.45;95609.56;10414211;28;2028;-87
2020/12/15 16:42:57;;;;;;;;;;;6.30;99.90;;;4.21;86.42;95615.81;10406850;28;1830;-85
2020/12/15 16:47:59;;;;;;;;;;;5.30;99.90;;;4.15;86.58;95620.22;10417157;28;2051;-86
2020/12/15 16:53:01;;;;;;;;;;;6.50;99.90;;;4.11;86.64;95627.03;10417293;28;1900;-84
2020/12/15 16:58:03;;;;;;;;;;;6.40;99.90;;;4.13;86.63;95643.56;10434516;28;1921;-85
2020/12/15 17:03:04;;;;;;;;;;;6.40;99.90;;;4.10;86.76;95643.25;10409307;28;1952;-84
2020/12/15 17:08:06;;;;;;;;;;;5.20;99.90;;;4.07;86.67;95652.50;10422315;28;2003;-83
2020/12/15 17:13:08;;;;;;;;;;;5.20;99.90;;;4.05;86.69;95668.69;10435573;28;1902;-80
2020/12/15 17:18:10;;;;;;;;;;;5.20;99.90;;;3.95;86.97;95673.00;10442407;28;1952;-82
2020/12/15 17:23:12;;;;;;;;;;;5.80;99.90;;;3.90;87.39;95671.03;10414868;28;1800;-80
2020/12/15 17:28:15;;;;;;;;;;;5.20;99.90;;;3.94;87.20;95666.03;10410932;28;1983;-80
2020/12/15 17:33:20;;;;;;;;;;;5.90;99.90;;;3.97;87.25;95671.72;10420455;28;1995;-83
2020/12/15 17:38:23;;;;;;;;;;;5.10;99.90;;;4.04;87.39;95682.22;10427060;28;1627;-81
2020/12/15 17:43:26;;;;;;;;;;;5.90;99.90;;;4.03;87.47;95691.25;10429947;28;1682;-82
2020/12/15 17:48:32;;;;;;;;;;;6.10;99.90;;;4.10;87.64;95701.75;10408912;28;1970;-81
2020/12/15 17:53:35;;;;;;;;;;;5.80;99.90;;;4.11;87.49;95696.22;10406574;28;1699;-82
2020/12/15 17:58:39;;;;;;;;;;;5.60;99.90;;;4.19;86.78;95711.00;10408092;28;1908;-80
2020/12/15 18:03:41;;;;;;;;;;;5.90;99.90;;;4.23;86.63;95702.31;10408061;28;1900;-83
2020/12/15 18:25:42;;;;;;;;;;;6.10;99.90;;;4.44;85.90;95713.34;10257278;28;1979;-87
2020/12/15 18:30:43;;;;;;;;;;;6.60;99.90;;;4.40;86.09;95730.88;10346955;28;1865;-87
2020/12/15 18:35:45;;;;;;;;;;;7.20;99.90;;;4.46;85.73;95737.91;10333079;28;2120;-89
2020/12/15 18:40:47;;;;;;;;;;;5.50;99.90;;;4.50;85.39;95744.34;10329496;28;1900;-87
2020/12/15 18:45:48;;;;;;;;;;;6.30;99.90;;;4.44;85.95;95745.28;10344824;28;2075;-87
2020/12/15 18:50:50;;;;;;;;;;;6.50;99.90;;;4.49;85.81;95732.09;10404216;28;1663;-85
2020/12/15 18:55:57;;;;;;;;;;;6.80;99.90;;;4.56;85.19;95738.09;10423206;28;1872;-85
2020/12/15 19:01:04;;;;;;;;;;;5.60;99.90;;;4.50;85.59;95739.03;10437100;28;1750;-86
2020/12/15 19:06:05;;;;;;;;;;;5.90;99.90;;;4.37;86.03;95744.63;10450193;28;1961;-82
2020/12/15 19:11:07;;;;;;;;;;;6.50;99.90;;;4.24;86.79;95746.50;10469652;28;1383;-85
2020/12/15 19:16:09;;;;;;;;;;;6.90;99.90;;;4.20;87.00;95761.34;10431288;28;2008;-85
2020/12/15 19:21:11;;;;;;;;;;;5.40;99.90;;;4.17;87.18;95755.66;10448983;28;1720;-85
2020/12/15 19:26:13;;;;;;;;;;;6.20;99.90;;;4.16;87.31;95760.16;10434769;28;1981;-86
2020/12/15 19:31:19;;;;;;;;;;;6.90;99.90;;;4.27;87.47;95764.66;10430357;28;1745;-86
2020/12/15 19:36:21;;;;;;;;;;;5.60;99.90;;;4.36;87.14;95775.75;10429046;28;1219;-87
2020/12/15 19:41:27;;;;;;;;;;;6.30;99.90;;;4.52;86.59;95763.59;10420569;28;1801;-86
2020/12/15 19:46:29;;;;;;;;;;;5.60;99.90;;;4.58;86.05;95773.25;10422931;28;1883;-86
2020/12/15 19:51:31;;;;;;;;;;;5.60;99.90;;;4.75;85.57;95768.81;10419119;28;1475;-86
2020/12/15 19:56:37;;;;;;;;;;;7.10;99.90;;;4.80;85.35;95782.25;10444981;28;1546;-86
2020/12/15 20:01:39;;;;;;;;;;;7.80;99.90;;;4.81;85.48;95785.72;10433635;28;1650;-87
2020/12/15 20:06:46;;;;;;;;;;;5.90;99.90;;;4.91;85.31;95774.47;10421649;28;1989;-87
2020/12/15 20:11:54;;;;;;;;;;;7.40;99.90;;;4.96;85.32;95774.53;10437923;28;1280;-87
2020/12/15 20:16:55;;;;;;;;;;;6.00;99.90;;;5.05;84.92;95773.13;10436506;28;1613;-86
2020/12/15 20:21:57;;;;;;;;;;;6.10;99.90;;;5.00;85.39;95770.34;10462665;28;1500;-88
2020/12/15 20:27:04;;;;;;;;;;;6.10;99.90;;;4.93;86.02;95773.16;10435620;28;1902;-85
2020/12/15 20:32:05;;;;;;;;;;;6.80;99.90;;;4.91;85.91;95777.94;10413904;28;1300;-84
2020/12/15 20:37:07;;;;;;;;;;;6.20;99.90;;;4.83;86.02;95773.75;10406537;28;1557;-84
2020/12/15 20:42:09;;;;;;;;;;;6.00;99.90;;;4.81;86.40;95777.72;10404026;28;1577;-83
2020/12/15 20:47:16;;;;;;;;;;;5.90;99.90;;;4.86;86.27;95780.50;10428539;28;1983;-85
2020/12/15 20:52:17;;;;;;;;;;;6.40;99.90;;;4.88;86.26;95759.75;10413495;28;1585;-87
2020/12/15 20:57:19;;;;;;;;;;;6.70;99.90;;;4.88;86.35;95773.06;10435121;28;1118;-84
2020/12/15 21:02:25;;;;;;;;;;;6.20;99.90;;;4.98;86.10;95767.13;10432080;28;1386;-88
2020/12/15 21:07:31;;;;;;;;;;;6.90;99.90;;;5.01;85.69;95761.31;10437864;28;1964;-87
2020/12/15 21:12:33;;;;;;;;;;;7.10;99.90;;;5.07;85.57;95771.00;10437401;28;1320;-87
2020/12/15 21:17:35;;;;;;;;;;;7.10;99.90;;;5.09;85.13;95768.91;10448539;28;1862;-84
2020/12/15 21:22:37;;;;;;;;;;;6.20;99.90;;;5.15;84.53;95751.97;10451796;28;1585;-82
2020/12/15 21:27:43;;;;;;;;;;;6.90;99.90;;;5.13;84.37;95749.53;10448695;28;1887;-84
2020/12/15 21:32:50;;;;;;;;;;;6.70;99.90;;;5.15;84.71;95744.81;10446055;28;1489;-83
2020/12/15 21:37:52;;;;;;;;;;;6.30;99.90;;;5.17;84.60;95751.75;10446831;28;1561;-85
2020/12/15 21:42:53;;;;;;;;;;;7.20;99.90;;;5.19;84.46;95765.63;10414808;28;1634;-85
2020/12/15 21:47:55;;;;;;;;;;;6.90;99.90;;;5.21;84.41;95766.19;10412849;28;2007;-87
2020/12/15 21:52:58;;;;;;;;;;;6.90;99.90;;;5.24;84.62;95766.53;10438947;28;2057;-83
2020/12/15 21:58:00;;;;;;;;;;;7.10;99.90;;;5.29;84.47;95774.63;10450366;28;2015;-83
2020/12/15 22:09:00;;;;;;;;;;;6.30;99.90;;;5.41;83.57;95759.38;10316356;28;1879;-87
2020/12/15 22:49:20;;;;;;;;;;;;;;;;;;;;;
2020/12/15 23:18:05;;;;;;;;;;;;;;;;;;;;;
2020/12/15 23:57:40;;;;;;;;;;;6.60;99.90;;;3.95;89.25;95734.97;10068300;29;2102;-84
